»·PEaware :: ECADR KSBA-KBUR

ECADR :: KSBA-KBUR

FLIGHT INFORMATION

Flight Status: Arrived
Operator: Unknown
More flights by this operator :: More flights under this callsign
Pilot: Adrián R. (20842)
Aircraft: CESSNA 172 SKYHAWK
(C172)
More flights by this aircraft type
Origin: KSBA Santa Barbara Mun
United States
Destination: KBUR Bob Hope-Burbank
United States
More flights between these airports :: More routes between these airports
Route: +
File this flight plan on PilotEdge
Remarks:
Altitude:
(Current/Filed)
0ft
Speed:
(Current/Filed)
0kts
Departed: 31-Oct-18 08:22 AM
Arrived: 31-Oct-18 09:11 AM
Distance/Time
Traveled:
75nm/0:48
Distance/Time
To Go:
Arrived

Flight Plot

Page will automatically refresh every two minutes.


Map Options




Map Legend


Flown Route
Filed Route
Departure Airport
Arrival Airport
Navaid (VOR, NDB)
Fix

Horizontal Profiles

Position Reports

Time Latitude Longitude Heading Altitude Ground
Speed
31-Oct-18 08:11 34.423078 -119.836090 161 17ft 0kts
31-Oct-18 08:12 34.423078 -119.836090 161 17ft 0kts
31-Oct-18 08:13 34.423078 -119.836090 161 17ft 0kts
31-Oct-18 08:14 34.423078 -119.836090 161 17ft 0kts
31-Oct-18 08:15 34.423078 -119.836090 161 17ft 0kts
31-Oct-18 08:16 34.422821 -119.836472 252 17ft 0kts
31-Oct-18 08:17 34.422821 -119.836472 252 17ft 0kts
31-Oct-18 08:18 34.422817 -119.836486 251 17ft 1kts
31-Oct-18 08:19 34.425105 -119.837871 345 17ft 16kts
31-Oct-18 08:20 34.429750 -119.839307 344 17ft 19kts
31-Oct-18 08:21 34.430850 -119.839864 224 17ft 0kts
31-Oct-18 08:21 34.430850 -119.839864 225 17ft 0kts
31-Oct-18 08:23 34.430850 -119.839864 225 17ft 0kts
31-Oct-18 08:23 34.430471 -119.840255 185 17ft 12kts
31-Oct-18 08:24 34.415367 -119.835825 166 465ft 84kts
31-Oct-18 08:25 34.392092 -119.829007 166 1315ft 88kts
31-Oct-18 08:26 34.366566 -119.821992 164 1545ft 107kts
31-Oct-18 08:27 34.346989 -119.794690 108 2363ft 111kts
31-Oct-18 08:28 34.342049 -119.760965 93 3314ft 94kts
31-Oct-18 08:29 34.338851 -119.728742 93 4015ft 98kts
31-Oct-18 08:30 34.334973 -119.696169 93 4715ft 97kts
31-Oct-18 08:31 34.331347 -119.664561 78 5415ft 90kts
31-Oct-18 08:32 34.336196 -119.630146 74 5510ft 107kts
31-Oct-18 08:33 34.341333 -119.594490 74 5510ft 107kts
31-Oct-18 08:34 34.346367 -119.558772 74 5510ft 107kts
31-Oct-18 08:35 34.351301 -119.523059 74 5509ft 107kts
31-Oct-18 08:36 34.356111 -119.487475 75 5509ft 107kts
31-Oct-18 08:37 34.363105 -119.452667 74 5508ft 106kts
31-Oct-18 08:38 34.367634 -119.417343 75 5507ft 106kts
31-Oct-18 08:39 34.371957 -119.382209 75 5506ft 104kts
31-Oct-18 08:40 34.369574 -119.347036 93 5505ft 105kts
31-Oct-18 08:41 34.365257 -119.318303 93 5505ft 104kts
31-Oct-18 08:42 34.360196 -119.285490 93 5504ft 103kts
31-Oct-18 08:43 34.352270 -119.256518 129 5503ft 112kts
31-Oct-18 08:44 34.331479 -119.243191 147 5505ft 118kts
31-Oct-18 08:45 34.304592 -119.224523 102 5503ft 104kts
31-Oct-18 08:46 34.302221 -119.191165 84 5507ft 99kts
31-Oct-18 08:47 34.300582 -119.158020 85 5509ft 98kts
31-Oct-18 08:48 34.298298 -119.124968 93 5509ft 100kts
31-Oct-18 08:49 34.290989 -119.092290 95 5512ft 101kts
31-Oct-18 08:50 34.283309 -119.059591 96 5510ft 101kts
31-Oct-18 08:51 34.275372 -119.027130 96 5511ft 100kts
31-Oct-18 08:52 34.263250 -118.996433 129 5511ft 113kts
31-Oct-18 08:53 34.238862 -118.972971 130 5514ft 114kts
31-Oct-18 08:54 34.214160 -118.949042 129 5509ft 114kts
31-Oct-18 08:55 34.193258 -118.921933 111 5509ft 108kts
31-Oct-18 08:56 34.177174 -118.891066 107 5509ft 107kts
31-Oct-18 08:57 34.165403 -118.858617 98 5507ft 104kts
31-Oct-18 08:58 34.155064 -118.825565 100 5508ft 105kts
31-Oct-18 08:59 34.144894 -118.792329 95 5509ft 105kts
31-Oct-18 09:00 34.141350 -118.758268 87 5499ft 102kts
31-Oct-18 09:01 34.138978 -118.723768 85 5351ft 106kts
31-Oct-18 09:02 34.136771 -118.687469 86 4869ft 109kts
31-Oct-18 09:03 34.136695 -118.651072 82 4397ft 111kts
31-Oct-18 09:04 34.138994 -118.614132 75 3913ft 110kts
31-Oct-18 09:05 34.144271 -118.577299 73 3492ft 107kts
31-Oct-18 09:06 34.152815 -118.544302 66 3495ft 108kts
31-Oct-18 09:07 34.162559 -118.509653 63 3498ft 106kts
31-Oct-18 09:08 34.173393 -118.477141 63 3500ft 103kts
31-Oct-18 09:09 34.184770 -118.443549 64 3170ft 106kts
31-Oct-18 09:10 34.193823 -118.416508 63 2307ft 84kts
31-Oct-18 09:11 34.198097 -118.390583 87 1316ft 72kts
31-Oct-18 09:12 34.197944 -118.369223 87 818ft 57kts
31-Oct-18 09:13 34.198656 -118.360248 358 780ft 0kts
31-Oct-18 09:14 34.198892 -118.359021 92 780ft 15kts
31-Oct-18 09:15 34.201329 -118.359530 349 780ft 9kts
31-Oct-18 09:16 34.201879 -118.359361 254 780ft 0kts
31-Oct-18 09:17 34.201879 -118.359361 254 780ft 0kts
31-Oct-18 09:18 34.201879 -118.359361 254 780ft 0kts

Navigation Log

Ident Type
Flight plan parsing failed, navigation log unavailable